sensor_id;sensor_type;location;lat;lon;timestamp;pressure;altitude;pressure_sealevel;temperature;humidity
7918;BME280;4004;42.624;23.386;2024-03-08T00:02:23;94214.94;;;5.69;100.00
7918;BME280;4004;42.624;23.386;2024-03-08T00:04:50;94211.94;;;5.70;100.00
7918;BME280;4004;42.624;23.386;2024-03-08T00:07:18;94210.81;;;5.71;100.00
7918;BME280;4004;42.624;23.386;2024-03-08T00:09:45;94198.81;;;5.65;100.00
7918;BME280;4004;42.624;23.386;2024-03-08T00:12:13;94207.72;;;5.69;100.00
7918;BME280;4004;42.624;23.386;2024-03-08T00:14:40;94214.31;;;5.72;100.00
7918;BME280;4004;42.624;23.386;2024-03-08T00:17:07;94208.16;;;5.71;100.00
7918;BME280;4004;42.624;23.386;2024-03-08T00:19:34;94207.72;;;5.69;100.00
7918;BME280;4004;42.624;23.386;2024-03-08T00:22:02;94210.56;;;5.64;100.00
7918;BME280;4004;42.624;23.386;2024-03-08T00:24:30;94209.94;;;5.67;100.00
7918;BME280;4004;42.624;23.386;2024-03-08T00:26:57;94208.03;;;5.68;100.00
7918;BME280;4004;42.624;23.386;2024-03-08T00:29:24;94208.31;;;5.75;100.00
7918;BME280;4004;42.624;23.386;2024-03-08T00:31:51;94203.94;;;5.70;100.00
7918;BME280;4004;42.624;23.386;2024-03-08T00:34:18;94197.06;;;5.69;100.00
7918;BME280;4004;42.624;23.386;2024-03-08T00:36:45;94194.38;;;5.69;100.00
7918;BME280;4004;42.624;23.386;2024-03-08T00:39:12;94195.47;;;5.68;100.00
7918;BME280;4004;42.624;23.386;2024-03-08T00:41:40;94193.00;;;5.63;100.00
7918;BME280;4004;42.624;23.386;2024-03-08T00:44:07;94186.69;;;5.68;100.00
7918;BME280;4004;42.624;23.386;2024-03-08T00:46:35;94192.03;;;5.68;100.00
7918;BME280;4004;42.624;23.386;2024-03-08T00:49:02;94189.69;;;5.66;100.00
7918;BME280;4004;42.624;23.386;2024-03-08T00:51:29;94180.59;;;5.67;100.00
7918;BME280;4004;42.624;23.386;2024-03-08T00:53:56;94177.78;;;5.64;100.00
7918;BME280;4004;42.624;23.386;2024-03-08T00:56:23;94176.97;;;5.72;100.00
7918;BME280;4004;42.624;23.386;2024-03-08T00:58:51;94172.91;;;5.66;100.00
7918;BME280;4004;42.624;23.386;2024-03-08T01:01:18;94170.13;;;5.53;100.00
7918;BME280;4004;42.624;23.386;2024-03-08T01:03:45;94169.63;;;5.60;100.00
7918;BME280;4004;42.624;23.386;2024-03-08T01:06:13;94179.56;;;5.51;100.00
7918;BME280;4004;42.624;23.386;2024-03-08T01:08:40;94175.16;;;5.55;100.00
7918;BME280;4004;42.624;23.386;2024-03-08T01:11:07;94169.16;;;5.58;100.00
7918;BME280;4004;42.624;23.386;2024-03-08T01:13:34;94168.28;;;5.54;100.00
7918;BME280;4004;42.624;23.386;2024-03-08T01:16:02;94164.56;;;5.37;100.00
7918;BME280;4004;42.624;23.386;2024-03-08T01:18:29;94164.75;;;5.32;100.00
7918;BME280;4004;42.624;23.386;2024-03-08T01:20:56;94165.91;;;5.23;100.00
7918;BME280;4004;42.624;23.386;2024-03-08T01:23:23;94163.06;;;5.19;100.00
7918;BME280;4004;42.624;23.386;2024-03-08T01:25:51;94158.53;;;5.19;100.00
7918;BME280;4004;42.624;23.386;2024-03-08T01:28:22;94160.59;;;5.14;100.00
7918;BME280;4004;42.624;23.386;2024-03-08T01:30:50;94168.13;;;5.12;100.00
7918;BME280;4004;42.624;23.386;2024-03-08T01:33:22;94162.63;;;5.08;100.00
7918;BME280;4004;42.624;23.386;2024-03-08T01:35:49;94163.59;;;5.04;100.00
7918;BME280;4004;42.624;23.386;2024-03-08T01:38:16;94157.63;;;5.07;100.00
7918;BME280;4004;42.624;23.386;2024-03-08T01:40:43;94160.47;;;5.02;100.00
7918;BME280;4004;42.624;23.386;2024-03-08T01:43:19;94156.28;;;4.92;100.00
7918;BME280;4004;42.624;23.386;2024-03-08T01:45:47;94159.53;;;4.97;100.00
7918;BME280;4004;42.624;23.386;2024-03-08T01:48:14;94150.75;;;4.97;100.00
7918;BME280;4004;42.624;23.386;2024-03-08T01:50:45;94152.84;;;4.91;100.00
7918;BME280;4004;42.624;23.386;2024-03-08T01:53:12;94163.81;;;4.90;100.00
7918;BME280;4004;42.624;23.386;2024-03-08T01:55:41;94158.31;;;4.86;100.00
7918;BME280;4004;42.624;23.386;2024-03-08T01:58:10;94158.97;;;4.83;100.00
7918;BME280;4004;42.624;23.386;2024-03-08T02:00:39;94153.63;;;4.83;100.00
7918;BME280;4004;42.624;23.386;2024-03-08T02:03:07;94156.88;;;4.89;100.00
7918;BME280;4004;42.624;23.386;2024-03-08T02:05:34;94154.69;;;4.91;100.00
7918;BME280;4004;42.624;23.386;2024-03-08T02:08:03;94153.16;;;4.90;100.00
7918;BME280;4004;42.624;23.386;2024-03-08T02:10:31;94149.22;;;4.96;100.00
7918;BME280;4004;42.624;23.386;2024-03-08T02:12:59;94145.94;;;4.90;100.00
7918;BME280;4004;42.624;23.386;2024-03-08T02:15:26;94151.38;;;5.03;100.00
7918;BME280;4004;42.624;23.386;2024-03-08T02:17:52;94159.66;;;5.10;100.00
7918;BME280;4004;42.624;23.386;2024-03-08T02:20:19;94149.19;;;5.05;100.00
7918;BME280;4004;42.624;23.386;2024-03-08T02:22:48;94156.22;;;5.09;100.00
7918;BME280;4004;42.624;23.386;2024-03-08T02:25:16;94156.22;;;5.09;100.00
7918;BME280;4004;42.624;23.386;2024-03-08T02:27:43;94154.81;;;5.12;100.00
7918;BME280;4004;42.624;23.386;2024-03-08T02:30:11;94152.91;;;5.12;100.00
7918;BME280;4004;42.624;23.386;2024-03-08T02:32:39;94159.47;;;5.15;100.00
7918;BME280;4004;42.624;23.386;2024-03-08T02:35:06;94160.72;;;5.17;100.00
7918;BME280;4004;42.624;23.386;2024-03-08T02:37:33;94161.97;;;5.20;100.00
7918;BME280;4004;42.624;23.386;2024-03-08T02:40:01;94162.13;;;5.24;100.00
7918;BME280;4004;42.624;23.386;2024-03-08T02:42:28;94163.81;;;5.28;100.00
7918;BME280;4004;42.624;23.386;2024-03-08T02:44:55;94162.72;;;5.29;100.00
7918;BME280;4004;42.624;23.386;2024-03-08T02:47:22;94163.16;;;5.31;100.00
7918;BME280;4004;42.624;23.386;2024-03-08T02:49:49;94176.19;;;5.33;100.00
7918;BME280;4004;42.624;23.386;2024-03-08T02:52:16;94166.25;;;5.42;100.00
7918;BME280;4004;42.624;23.386;2024-03-08T02:54:43;94172.06;;;5.44;100.00
7918;BME280;4004;42.624;23.386;2024-03-08T02:57:13;94164.41;;;5.43;100.00
7918;BME280;4004;42.624;23.386;2024-03-08T02:59:40;94175.06;;;5.43;100.00
7918;BME280;4004;42.624;23.386;2024-03-08T03:02:07;94163.59;;;5.42;100.00
7918;BME280;4004;42.624;23.386;2024-03-08T03:04:35;94160.63;;;5.44;100.00
7918;BME280;4004;42.624;23.386;2024-03-08T03:07:02;94164.69;;;5.50;100.00
7918;BME280;4004;42.624;23.386;2024-03-08T03:09:30;94166.41;;;5.46;100.00
7918;BME280;4004;42.624;23.386;2024-03-08T03:11:58;94159.97;;;5.47;100.00
7918;BME280;4004;42.624;23.386;2024-03-08T03:14:26;94167.47;;;5.53;100.00
7918;BME280;4004;42.624;23.386;2024-03-08T03:16:53;94163.50;;;5.59;100.00
7918;BME280;4004;42.624;23.386;2024-03-08T03:19:20;94170.91;;;5.63;100.00
7918;BME280;4004;42.624;23.386;2024-03-08T03:21:47;94169.50;;;5.56;100.00
7918;BME280;4004;42.624;23.386;2024-03-08T03:24:14;94169.50;;;5.56;100.00
7918;BME280;4004;42.624;23.386;2024-03-08T03:26:42;94169.50;;;5.56;100.00
7918;BME280;4004;42.624;23.386;2024-03-08T03:29:09;94170.75;;;5.59;100.00
7918;BME280;4004;42.624;23.386;2024-03-08T03:31:38;94166.34;;;5.63;100.00
7918;BME280;4004;42.624;23.386;2024-03-08T03:34:05;94172.28;;;5.60;100.00
7918;BME280;4004;42.624;23.386;2024-03-08T03:36:34;94178.75;;;5.59;100.00
7918;BME280;4004;42.624;23.386;2024-03-08T03:39:03;94181.44;;;5.50;100.00
7918;BME280;4004;42.624;23.386;2024-03-08T03:41:36;94185.34;;;5.53;100.00
7918;BME280;4004;42.624;23.386;2024-03-08T03:44:04;94182.41;;;5.46;100.00
7918;BME280;4004;42.624;23.386;2024-03-08T03:46:32;94178.81;;;5.42;100.00
7918;BME280;4004;42.624;23.386;2024-03-08T03:49:00;94187.13;;;5.40;100.00
7918;BME280;4004;42.624;23.386;2024-03-08T03:51:29;94184.00;;;5.38;100.00
7918;BME280;4004;42.624;23.386;2024-03-08T03:53:55;94187.47;;;5.38;100.00
7918;BME280;4004;42.624;23.386;2024-03-08T03:56:25;94182.13;;;5.38;100.00
7918;BME280;4004;42.624;23.386;2024-03-08T03:58:52;94188.41;;;5.43;100.00
7918;BME280;4004;42.624;23.386;2024-03-08T04:01:19;94188.53;;;5.46;100.00
7918;BME280;4004;42.624;23.386;2024-03-08T04:03:46;94192.63;;;5.44;100.00
7918;BME280;4004;42.624;23.386;2024-03-08T04:06:14;94188.06;;;5.44;100.00
7918;BME280;4004;42.624;23.386;2024-03-08T04:08:41;94189.28;;;5.47;100.00
7918;BME280;4004;42.624;23.386;2024-03-08T04:11:08;94198.09;;;5.47;100.00
7918;BME280;4004;42.624;23.386;2024-03-08T04:13:35;94193.84;;;5.46;100.00
7918;BME280;4004;42.624;23.386;2024-03-08T04:16:03;94202.00;;;5.50;100.00
7918;BME280;4004;42.624;23.386;2024-03-08T04:18:33;94191.81;;;5.52;100.00
7918;BME280;4004;42.624;23.386;2024-03-08T04:21:01;94199.47;;;5.53;100.00
7918;BME280;4004;42.624;23.386;2024-03-08T04:23:29;94196.66;;;5.50;100.00
7918;BME280;4004;42.624;23.386;2024-03-08T04:25:56;94205.13;;;5.52;100.00
7918;BME280;4004;42.624;23.386;2024-03-08T04:28:23;94202.13;;;5.53;100.00
7918;BME280;4004;42.624;23.386;2024-03-08T04:30:50;94213.13;;;5.52;100.00
7918;BME280;4004;42.624;23.386;2024-03-08T04:33:17;94214.84;;;5.56;100.00
7918;BME280;4004;42.624;23.386;2024-03-08T04:35:45;94210.44;;;5.60;100.00
7918;BME280;4004;42.624;23.386;2024-03-08T04:38:12;94212.94;;;5.57;100.00
7918;BME280;4004;42.624;23.386;2024-03-08T04:40:40;94219.06;;;5.57;100.00
7918;BME280;4004;42.624;23.386;2024-03-08T04:43:08;94221.41;;;5.59;100.00
7918;BME280;4004;42.624;23.386;2024-03-08T04:45:36;94222.34;;;5.63;100.00
7918;BME280;4004;42.624;23.386;2024-03-08T04:48:03;94225.53;;;5.48;100.00
7918;BME280;4004;42.624;23.386;2024-03-08T04:50:30;94219.47;;;5.38;100.00
7918;BME280;4004;42.624;23.386;2024-03-08T04:52:57;94219.34;;;5.26;100.00
7918;BME280;4004;42.624;23.386;2024-03-08T04:55:24;94226.09;;;5.24;100.00
7918;BME280;4004;42.624;23.386;2024-03-08T04:57:52;94236.28;;;5.13;100.00
7918;BME280;4004;42.624;23.386;2024-03-08T05:00:19;94238.66;;;5.06;100.00
7918;BME280;4004;42.624;23.386;2024-03-08T05:02:46;94237.13;;;5.05;100.00
7918;BME280;4004;42.624;23.386;2024-03-08T05:05:13;94235.84;;;4.93;100.00
7918;BME280;4004;42.624;23.386;2024-03-08T05:07:40;94245.13;;;5.05;100.00
7918;BME280;4004;42.624;23.386;2024-03-08T05:10:09;94234.09;;;5.15;100.00
7918;BME280;4004;42.624;23.386;2024-03-08T05:12:36;94241.16;;;5.19;100.00
7918;BME280;4004;42.624;23.386;2024-03-08T05:15:06;94246.75;;;5.27;100.00
7918;BME280;4004;42.624;23.386;2024-03-08T05:17:33;94248.84;;;5.21;100.00
7918;BME280;4004;42.624;23.386;2024-03-08T05:20:00;94244.44;;;5.25;100.00
7918;BME280;4004;42.624;23.386;2024-03-08T05:22:27;94251.97;;;5.23;100.00
7918;BME280;4004;42.624;23.386;2024-03-08T05:24:54;94242.75;;;5.12;100.00
7918;BME280;4004;42.624;23.386;2024-03-08T05:27:21;94260.13;;;5.18;100.00
7918;BME280;4004;42.624;23.386;2024-03-08T05:29:48;94260.47;;;5.08;100.00
7918;BME280;4004;42.624;23.386;2024-03-08T05:32:16;94268.31;;;4.95;100.00
7918;BME280;4004;42.624;23.386;2024-03-08T05:34:43;94274.09;;;4.80;100.00
7918;BME280;4004;42.624;23.386;2024-03-08T05:37:11;94278.53;;;4.67;100.00
7918;BME280;4004;42.624;23.386;2024-03-08T05:39:37;94284.91;;;4.57;100.00
7918;BME280;4004;42.624;23.386;2024-03-08T05:42:06;94282.09;;;4.45;100.00
7918;BME280;4004;42.624;23.386;2024-03-08T05:44:34;94288.19;;;4.37;100.00
7918;BME280;4004;42.624;23.386;2024-03-08T05:47:01;94286.28;;;4.29;100.00
7918;BME280;4004;42.624;23.386;2024-03-08T05:49:29;94300.88;;;4.23;100.00
7918;BME280;4004;42.624;23.386;2024-03-08T05:51:56;94286.94;;;4.26;100.00
7918;BME280;4004;42.624;23.386;2024-03-08T05:54:23;94293.34;;;4.25;100.00
7918;BME280;4004;42.624;23.386;2024-03-08T05:56:50;94301.66;;;4.23;100.00
7918;BME280;4004;42.624;23.386;2024-03-08T05:59:18;94304.00;;;4.25;100.00
7918;BME280;4004;42.624;23.386;2024-03-08T06:01:45;94306.97;;;4.23;100.00
7918;BME280;4004;42.624;23.386;2024-03-08T06:04:13;94319.97;;;4.25;100.00
7918;BME280;4004;42.624;23.386;2024-03-08T06:06:41;94317.59;;;4.14;100.00
7918;BME280;4004;42.624;23.386;2024-03-08T06:09:08;94319.44;;;4.05;100.00
7918;BME280;4004;42.624;23.386;2024-03-08T06:11:37;94322.41;;;4.04;100.00
7918;BME280;4004;42.624;23.386;2024-03-08T06:14:04;94321.00;;;4.06;100.00
7918;BME280;4004;42.624;23.386;2024-03-08T06:16:31;94330.88;;;4.06;100.00
7918;BME280;4004;42.624;23.386;2024-03-08T06:18:59;94330.88;;;4.06;100.00
7918;BME280;4004;42.624;23.386;2024-03-08T06:21:27;94337.72;;;3.98;100.00
7918;BME280;4004;42.624;23.386;2024-03-08T06:23:56;94332.75;;;4.05;100.00
7918;BME280;4004;42.624;23.386;2024-03-08T06:26:23;94333.00;;;3.95;100.00
7918;BME280;4004;42.624;23.386;2024-03-08T06:28:53;94332.72;;;3.97;100.00
7918;BME280;4004;42.624;23.386;2024-03-08T06:31:20;94337.84;;;3.93;100.00
7918;BME280;4004;42.624;23.386;2024-03-08T06:33:47;94347.69;;;3.84;100.00
7918;BME280;4004;42.624;23.386;2024-03-08T06:36:16;94342.88;;;3.94;100.00
7918;BME280;4004;42.624;23.386;2024-03-08T06:38:44;94344.28;;;3.92;100.00
7918;BME280;4004;42.624;23.386;2024-03-08T06:41:13;94350.19;;;3.89;100.00
7918;BME280;4004;42.624;23.386;2024-03-08T06:43:41;94349.13;;;3.90;100.00
7918;BME280;4004;42.624;23.386;2024-03-08T06:46:08;94349.59;;;3.92;100.00
7918;BME280;4004;42.624;23.386;2024-03-08T06:48:36;94344.13;;;3.97;100.00
7918;BME280;4004;42.624;23.386;2024-03-08T06:51:04;94340.56;;;4.10;100.00
7918;BME280;4004;42.624;23.386;2024-03-08T06:53:31;94344.56;;;4.30;100.00
7918;BME280;4004;42.624;23.386;2024-03-08T06:55:58;94351.31;;;4.45;100.00
7918;BME280;4004;42.624;23.386;2024-03-08T06:58:26;94350.09;;;4.69;100.00
7918;BME280;4004;42.624;23.386;2024-03-08T07:00:53;94360.44;;;4.79;100.00
7918;BME280;4004;42.624;23.386;2024-03-08T07:03:23;94356.69;;;4.80;100.00
7918;BME280;4004;42.624;23.386;2024-03-08T07:05:52;94341.03;;;4.96;100.00
7918;BME280;4004;42.624;23.386;2024-03-08T07:08:20;94351.66;;;5.22;100.00
7918;BME280;4004;42.624;23.386;2024-03-08T07:10:48;94348.22;;;5.30;100.00
7918;BME280;4004;42.624;23.386;2024-03-08T07:13:15;94348.22;;;5.39;100.00
7918;BME280;4004;42.624;23.386;2024-03-08T07:15:44;94353.69;;;5.43;100.00
7918;BME280;4004;42.624;23.386;2024-03-08T07:18:12;94350.56;;;5.49;100.00
7918;BME280;4004;42.624;23.386;2024-03-08T07:20:40;94351.44;;;5.62;100.00
7918;BME280;4004;42.624;23.386;2024-03-08T07:23:08;94350.66;;;5.70;100.00
7918;BME280;4004;42.624;23.386;2024-03-08T07:25:36;94348.16;;;5.74;100.00
7918;BME280;4004;42.624;23.386;2024-03-08T07:28:04;94353.41;;;5.91;100.00
7918;BME280;4004;42.624;23.386;2024-03-08T07:30:33;94348.38;;;6.07;100.00
7918;BME280;4004;42.624;23.386;2024-03-08T07:33:18;94346.41;;;6.25;100.00
7918;BME280;4004;42.624;23.386;2024-03-08T07:35:48;94347.66;;;6.28;100.00
7918;BME280;4004;42.624;23.386;2024-03-08T07:38:15;94356.66;;;6.44;100.00
7918;BME280;4004;42.624;23.386;2024-03-08T07:40:42;94357.03;;;6.34;100.00
7918;BME280;4004;42.624;23.386;2024-03-08T07:43:11;94353.09;;;6.31;100.00
7918;BME280;4004;42.624;23.386;2024-03-08T07:45:38;94354.19;;;6.39;100.00
7918;BME280;4004;42.624;23.386;2024-03-08T07:48:06;94357.84;;;6.55;100.00
7918;BME280;4004;42.624;23.386;2024-03-08T07:50:36;94361.00;;;6.57;100.00
7918;BME280;4004;42.624;23.386;2024-03-08T07:53:04;94336.41;;;6.13;100.00
7918;BME280;4004;42.624;23.386;2024-03-08T07:55:32;94356.91;;;6.30;100.00
7918;BME280;4004;42.624;23.386;2024-03-08T07:58:00;94360.25;;;6.18;100.00
7918;BME280;4004;42.624;23.386;2024-03-08T08:00:28;94356.66;;;6.14;100.00
7918;BME280;4004;42.624;23.386;2024-03-08T08:02:56;94359.44;;;6.18;100.00
7918;BME280;4004;42.624;23.386;2024-03-08T08:05:23;94360.38;;;6.22;100.00
7918;BME280;4004;42.624;23.386;2024-03-08T08:07:53;94363.06;;;6.22;100.00
7918;BME280;4004;42.624;23.386;2024-03-08T08:10:20;94356.75;;;6.27;100.00
7918;BME280;4004;42.624;23.386;2024-03-08T08:12:48;94365.28;;;6.50;100.00
7918;BME280;4004;42.624;23.386;2024-03-08T08:15:15;94357.81;;;6.64;100.00
7918;BME280;4004;42.624;23.386;2024-03-08T08:17:43;94367.63;;;6.81;100.00
7918;BME280;4004;42.624;23.386;2024-03-08T08:20:10;94363.63;;;7.08;100.00
7918;BME280;4004;42.624;23.386;2024-03-08T08:22:38;94352.53;;;7.39;100.00
7918;BME280;4004;42.624;23.386;2024-03-08T08:25:07;94349.69;;;7.57;100.00
7918;BME280;4004;42.624;23.386;2024-03-08T08:27:34;94350.63;;;7.73;100.00
7918;BME280;4004;42.624;23.386;2024-03-08T08:30:04;94360.59;;;7.97;100.00
7918;BME280;4004;42.624;23.386;2024-03-08T08:32:33;94355.59;;;8.20;100.00
7918;BME280;4004;42.624;23.386;2024-03-08T08:35:01;94356.59;;;8.16;98.96
7918;BME280;4004;42.624;23.386;2024-03-08T08:37:30;94356.38;;;8.08;98.39
7918;BME280;4004;42.624;23.386;2024-03-08T08:39:56;94354.28;;;8.14;98.62
7918;BME280;4004;42.624;23.386;2024-03-08T08:42:25;94357.16;;;7.97;97.76
7918;BME280;4004;42.624;23.386;2024-03-08T08:44:54;94358.78;;;7.89;98.91
7918;BME280;4004;42.624;23.386;2024-03-08T08:47:23;94358.09;;;7.80;99.02
7918;BME280;4004;42.624;23.386;2024-03-08T08:49:50;94345.88;;;7.58;100.00
7918;BME280;4004;42.624;23.386;2024-03-08T08:52:16;94346.34;;;7.60;100.00
7918;BME280;4004;42.624;23.386;2024-03-08T08:54:44;94342.56;;;7.61;100.00
7918;BME280;4004;42.624;23.386;2024-03-08T08:57:11;94351.28;;;7.70;100.00
7918;BME280;4004;42.624;23.386;2024-03-08T08:59:40;94347.31;;;7.88;99.69
7918;BME280;4004;42.624;23.386;2024-03-08T09:02:07;94348.22;;;7.93;97.13
7918;BME280;4004;42.624;23.386;2024-03-08T09:04:35;94345.06;;;7.78;98.73
7918;BME280;4004;42.624;23.386;2024-03-08T09:07:02;94347.88;;;8.06;99.02
7918;BME280;4004;42.624;23.386;2024-03-08T09:09:31;94350.66;;;7.98;96.57
7918;BME280;4004;42.624;23.386;2024-03-08T09:11:58;94348.44;;;7.87;97.15
7918;BME280;4004;42.624;23.386;2024-03-08T09:14:25;94348.69;;;8.19;95.58
7918;BME280;4004;42.624;23.386;2024-03-08T09:16:53;94349.75;;;8.52;94.11
7918;BME280;4004;42.624;23.386;2024-03-08T09:19:20;94343.53;;;8.88;92.75
7918;BME280;4004;42.624;23.386;2024-03-08T09:21:50;94355.16;;;8.92;92.41
7918;BME280;4004;42.624;23.386;2024-03-08T09:24:17;94345.69;;;9.23;91.14
7918;BME280;4004;42.624;23.386;2024-03-08T09:26:44;94355.41;;;9.27;88.15
7918;BME280;4004;42.624;23.386;2024-03-08T09:29:11;94357.25;;;9.39;84.87
7918;BME280;4004;42.624;23.386;2024-03-08T09:31:38;94349.09;;;9.07;82.36
7918;BME280;4004;42.624;23.386;2024-03-08T09:34:07;94349.66;;;9.01;82.33
7918;BME280;4004;42.624;23.386;2024-03-08T09:36:34;94346.47;;;8.83;83.53
7918;BME280;4004;42.624;23.386;2024-03-08T09:39:02;94345.56;;;8.66;85.99
7918;BME280;4004;42.624;23.386;2024-03-08T09:41:33;94346.47;;;8.83;84.80
7918;BME280;4004;42.624;23.386;2024-03-08T09:44:00;94344.56;;;8.71;82.98
7918;BME280;4004;42.624;23.386;2024-03-08T09:46:27;94345.00;;;8.85;80.11
7918;BME280;4004;42.624;23.386;2024-03-08T09:48:54;94347.50;;;9.19;78.87
7918;BME280;4004;42.624;23.386;2024-03-08T09:51:27;94348.63;;;9.46;77.65
7918;BME280;4004;42.624;23.386;2024-03-08T09:53:54;94341.00;;;9.76;75.79
7918;BME280;4004;42.624;23.386;2024-03-08T09:56:22;94341.97;;;10.00;74.03
7918;BME280;4004;42.624;23.386;2024-03-08T09:58:50;94339.09;;;9.92;73.59
7918;BME280;4004;42.624;23.386;2024-03-08T10:01:45;94348.06;;;9.68;70.26
7918;BME280;4004;42.624;23.386;2024-03-08T10:04:12;94346.72;;;9.46;71.39
7918;BME280;4004;42.624;23.386;2024-03-08T10:06:41;94343.28;;;9.33;70.28
7918;BME280;4004;42.624;23.386;2024-03-08T10:09:07;94338.13;;;9.12;71.54
7918;BME280;4004;42.624;23.386;2024-03-08T10:11:36;94343.66;;;8.91;70.94
7918;BME280;4004;42.624;23.386;2024-03-08T10:14:04;94345.00;;;8.73;72.05
7918;BME280;4004;42.624;23.386;2024-03-08T10:16:31;94334.44;;;8.52;72.50
7918;BME280;4004;42.624;23.386;2024-03-08T10:18:59;94331.53;;;8.45;76.09
7918;BME280;4004;42.624;23.386;2024-03-08T10:21:27;94335.63;;;8.67;74.74
7918;BME280;4004;42.624;23.386;2024-03-08T10:23:55;94342.94;;;8.54;73.26
7918;BME280;4004;42.624;23.386;2024-03-08T10:26:23;94341.91;;;8.59;73.09
7918;BME280;4004;42.624;23.386;2024-03-08T10:28:51;94345.53;;;9.03;72.10
7918;BME280;4004;42.624;23.386;2024-03-08T10:31:19;94339.97;;;8.96;70.64
7918;BME280;4004;42.624;23.386;2024-03-08T10:33:46;94337.28;;;8.84;69.77
7918;BME280;4004;42.624;23.386;2024-03-08T10:36:15;94332.25;;;8.82;71.99
7918;BME280;4004;42.624;23.386;2024-03-08T10:38:42;94338.69;;;9.06;70.17
7918;BME280;4004;42.624;23.386;2024-03-08T10:41:13;94336.16;;;8.97;69.38
7918;BME280;4004;42.624;23.386;2024-03-08T10:43:59;94327.06;;;9.02;70.12
7918;BME280;4004;42.624;23.386;2024-03-08T10:46:41;94319.66;;;9.11;71.34
7918;BME280;4004;42.624;23.386;2024-03-08T10:49:14;94325.53;;;9.29;68.41
7918;BME280;4004;42.624;23.386;2024-03-08T10:51:43;94320.06;;;8.97;70.70
7918;BME280;4004;42.624;23.386;2024-03-08T10:54:11;94322.69;;;8.69;69.93
7918;BME280;4004;42.624;23.386;2024-03-08T10:56:42;94322.78;;;8.60;70.84
7918;BME280;4004;42.624;23.386;2024-03-08T10:59:10;94316.22;;;8.33;72.14
7918;BME280;4004;42.624;23.386;2024-03-08T11:01:38;94312.19;;;8.64;70.36
7918;BME280;4004;42.624;23.386;2024-03-08T11:04:05;94308.41;;;8.65;71.21
7918;BME280;4004;42.624;23.386;2024-03-08T11:06:42;94309.13;;;8.90;70.27
7918;BME280;4004;42.624;23.386;2024-03-08T11:09:27;94313.66;;;9.14;68.36
7918;BME280;4004;42.624;23.386;2024-03-08T11:12:20;94298.38;;;9.30;66.18
7918;BME280;4004;42.624;23.386;2024-03-08T11:14:48;94306.16;;;9.36;66.79
7918;BME280;4004;42.624;23.386;2024-03-08T11:17:16;94295.41;;;9.64;66.27
7918;BME280;4004;42.624;23.386;2024-03-08T11:19:48;94292.25;;;9.90;65.52
7918;BME280;4004;42.624;23.386;2024-03-08T11:22:22;94295.97;;;9.41;65.18
7918;BME280;4004;42.624;23.386;2024-03-08T11:24:52;94297.91;;;9.00;67.71
7918;BME280;4004;42.624;23.386;2024-03-08T11:27:20;94297.19;;;8.87;70.93
7918;BME280;4004;42.624;23.386;2024-03-08T11:30:03;94292.53;;;8.72;73.66
7918;BME280;4004;42.624;23.386;2024-03-08T11:32:37;94288.53;;;8.66;70.68
7918;BME280;4004;42.624;23.386;2024-03-08T11:35:06;94298.94;;;8.43;70.21
7918;BME280;4004;42.624;23.386;2024-03-08T11:37:34;94289.09;;;8.35;70.67
7918;BME280;4004;42.624;23.386;2024-03-08T11:40:02;94282.06;;;8.30;70.08
7918;BME280;4004;42.624;23.386;2024-03-08T11:42:31;94281.28;;;8.29;70.23
7918;BME280;4004;42.624;23.386;2024-03-08T11:44:58;94279.84;;;8.32;72.25
7918;BME280;4004;42.624;23.386;2024-03-08T11:47:25;94287.66;;;8.49;71.29
7918;BME280;4004;42.624;23.386;2024-03-08T11:49:52;94276.06;;;8.45;70.59
7918;BME280;4004;42.624;23.386;2024-03-08T11:52:19;94273.91;;;8.51;70.40
7918;BME280;4004;42.624;23.386;2024-03-08T11:54:51;94280.03;;;8.76;69.36
7918;BME280;4004;42.624;23.386;2024-03-08T11:57:20;94287.03;;;9.09;68.45
7918;BME280;4004;42.624;23.386;2024-03-08T11:59:54;94271.22;;;9.32;67.07
7918;BME280;4004;42.624;23.386;2024-03-08T12:02:22;94280.44;;;9.63;66.53
7918;BME280;4004;42.624;23.386;2024-03-08T12:04:56;94278.53;;;9.79;64.63
7918;BME280;4004;42.624;23.386;2024-03-08T12:07:23;94277.16;;;9.85;62.38
7918;BME280;4004;42.624;23.386;2024-03-08T12:10:17;94274.38;;;9.66;62.48
7918;BME280;4004;42.624;23.386;2024-03-08T12:12:45;94271.09;;;9.88;62.07
7918;BME280;4004;42.624;23.386;2024-03-08T12:15:15;94273.44;;;10.06;60.36
7918;BME280;4004;42.624;23.386;2024-03-08T12:17:43;94271.34;;;9.99;60.99
7918;BME280;4004;42.624;23.386;2024-03-08T12:20:15;94265.56;;;9.81;64.70
7918;BME280;4004;42.624;23.386;2024-03-08T12:22:43;94275.69;;;9.72;65.91
7918;BME280;4004;42.624;23.386;2024-03-08T12:25:11;94265.31;;;9.42;64.95
7918;BME280;4004;42.624;23.386;2024-03-08T12:27:39;94260.47;;;9.32;64.04
7918;BME280;4004;42.624;23.386;2024-03-08T12:30:21;94270.78;;;9.30;64.40
7918;BME280;4004;42.624;23.386;2024-03-08T12:32:52;94267.78;;;9.47;66.57
7918;BME280;4004;42.624;23.386;2024-03-08T12:35:20;94258.75;;;9.40;68.65
7918;BME280;4004;42.624;23.386;2024-03-08T12:37:50;94262.59;;;9.54;66.70
7918;BME280;4004;42.624;23.386;2024-03-08T12:40:17;94259.63;;;9.60;63.69
7918;BME280;4004;42.624;23.386;2024-03-08T12:42:44;94255.59;;;9.66;64.11
7918;BME280;4004;42.624;23.386;2024-03-08T12:45:13;94251.75;;;9.67;69.32
7918;BME280;4004;42.624;23.386;2024-03-08T12:47:42;94254.53;;;9.70;69.48
7918;BME280;4004;42.624;23.386;2024-03-08T12:50:10;94256.53;;;9.58;64.65
7918;BME280;4004;42.624;23.386;2024-03-08T12:52:37;94238.25;;;9.47;68.71
7918;BME280;4004;42.624;23.386;2024-03-08T12:55:04;94252.59;;;9.39;67.99
7918;BME280;4004;42.624;23.386;2024-03-08T12:57:34;94249.75;;;9.04;66.91
7918;BME280;4004;42.624;23.386;2024-03-08T13:00:02;94247.72;;;8.85;68.81
7918;BME280;4004;42.624;23.386;2024-03-08T13:02:30;94244.78;;;8.90;76.08
7918;BME280;4004;42.624;23.386;2024-03-08T13:04:59;94242.84;;;9.03;71.20
7918;BME280;4004;42.624;23.386;2024-03-08T13:07:26;94246.06;;;9.24;70.14
7918;BME280;4004;42.624;23.386;2024-03-08T13:09:54;94258.03;;;9.27;65.22
7918;BME280;4004;42.624;23.386;2024-03-08T13:12:22;94250.53;;;9.04;67.03
7918;BME280;4004;42.624;23.386;2024-03-08T13:14:49;94244.59;;;8.83;66.35
7918;BME280;4004;42.624;23.386;2024-03-08T13:17:16;94250.88;;;8.62;68.02
7918;BME280;4004;42.624;23.386;2024-03-08T13:19:43;94255.06;;;8.47;67.36
7918;BME280;4004;42.624;23.386;2024-03-08T13:22:12;94227.72;;;8.29;68.34